sensor_id;sensor_type;location;lat;lon;timestamp;pressure;altitude;pressure_sealevel;temperature;humidity
23321;BME280;33376;51.306;4.752;2023-02-04T00:00:09;103270.97;;;8.35;nan
23321;BME280;33376;51.306;4.752;2023-02-04T00:02:35;103264.81;;;8.32;nan
23321;BME280;33376;51.306;4.752;2023-02-04T00:05:02;103275.31;;;8.39;nan
23321;BME280;33376;51.306;4.752;2023-02-04T00:07:28;103273.63;;;8.34;nan
23321;BME280;33376;51.306;4.752;2023-02-04T00:09:53;103269.25;;;8.33;nan
23321;BME280;33376;51.306;4.752;2023-02-04T00:12:18;103282.44;;;8.36;nan
23321;BME280;33376;51.306;4.752;2023-02-04T00:14:44;103281.53;;;8.37;nan
23321;BME280;33376;51.306;4.752;2023-02-04T00:17:09;103274.50;;;8.37;nan
23321;BME280;33376;51.306;4.752;2023-02-04T00:19:36;103286.84;;;8.32;nan
23321;BME280;33376;51.306;4.752;2023-02-04T00:22:02;103290.34;;;8.37;nan
23321;BME280;33376;51.306;4.752;2023-02-04T00:24:28;103295.66;;;8.34;nan
23321;BME280;33376;51.306;4.752;2023-02-04T00:26:53;103294.75;;;8.38;nan
23321;BME280;33376;51.306;4.752;2023-02-04T00:29:18;103298.28;;;8.39;nan
23321;BME280;33376;51.306;4.752;2023-02-04T00:31:44;103302.63;;;8.44;nan
23321;BME280;33376;51.306;4.752;2023-02-04T00:34:09;103299.97;;;8.43;nan
23321;BME280;33376;51.306;4.752;2023-02-04T00:36:34;103300.88;;;8.42;nan
23321;BME280;33376;51.306;4.752;2023-02-04T00:38:59;103300.94;;;8.37;nan
23321;BME280;33376;51.306;4.752;2023-02-04T00:41:24;103308.81;;;8.42;nan
23321;BME280;33376;51.306;4.752;2023-02-04T00:43:50;103322.03;;;8.43;nan
23321;BME280;33376;51.306;4.752;2023-02-04T00:46:15;103315.81;;;8.46;nan
23321;BME280;33376;51.306;4.752;2023-02-04T00:48:40;103314.91;;;8.54;nan
23321;BME280;33376;51.306;4.752;2023-02-04T00:51:06;103316.63;;;8.58;nan
23321;BME280;33376;51.306;4.752;2023-02-04T00:53:31;103318.44;;;8.55;nan
23321;BME280;33376;51.306;4.752;2023-02-04T00:55:56;103324.69;;;8.42;nan
23321;BME280;33376;51.306;4.752;2023-02-04T00:58:22;103320.28;;;8.39;nan
23321;BME280;33376;51.306;4.752;2023-02-04T01:00:47;103325.53;;;8.41;nan
23321;BME280;33376;51.306;4.752;2023-02-04T01:03:12;103328.22;;;8.42;nan
23321;BME280;33376;51.306;4.752;2023-02-04T01:05:38;103327.31;;;8.45;nan
23321;BME280;33376;51.306;4.752;2023-02-04T01:08:03;103330.78;;;8.51;nan
23321;BME280;33376;51.306;4.752;2023-02-04T01:10:28;103335.25;;;8.43;nan
23321;BME280;33376;51.306;4.752;2023-02-04T01:12:53;103337.78;;;8.55;nan
23321;BME280;33376;51.306;4.752;2023-02-04T01:15:19;103338.69;;;8.56;nan
23321;BME280;33376;51.306;4.752;2023-02-04T01:17:44;103346.63;;;8.53;nan
23321;BME280;33376;51.306;4.752;2023-02-04T01:20:09;103351.91;;;8.54;nan
23321;BME280;33376;51.306;4.752;2023-02-04T01:22:35;103348.38;;;8.54;nan
23321;BME280;33376;51.306;4.752;2023-02-04T01:25:00;103349.25;;;8.56;nan
23321;BME280;33376;51.306;4.752;2023-02-04T01:27:25;103358.97;;;8.54;nan
23321;BME280;33376;51.306;4.752;2023-02-04T01:29:50;103351.94;;;8.53;nan
23321;BME280;33376;51.306;4.752;2023-02-04T01:32:16;103356.31;;;8.54;nan
23321;BME280;33376;51.306;4.752;2023-02-04T01:34:41;103359.88;;;8.53;nan
23321;BME280;33376;51.306;4.752;2023-02-04T01:37:06;103357.22;;;8.51;nan
23321;BME280;33376;51.306;4.752;2023-02-04T01:39:31;103369.56;;;8.52;nan
23321;BME280;33376;51.306;4.752;2023-02-04T01:41:58;103366.03;;;8.53;nan
23321;BME280;33376;51.306;4.752;2023-02-04T01:44:25;103365.16;;;8.53;nan
23321;BME280;33376;51.306;4.752;2023-02-04T01:46:50;103371.34;;;8.50;nan
23321;BME280;33376;51.306;4.752;2023-02-04T01:49:15;103370.50;;;8.45;nan
23321;BME280;33376;51.306;4.752;2023-02-04T01:51:41;103366.97;;;8.45;nan
23321;BME280;33376;51.306;4.752;2023-02-04T01:54:08;103369.63;;;8.43;nan
23321;BME280;33376;51.306;4.752;2023-02-04T01:56:34;103380.19;;;8.42;nan
23321;BME280;33376;51.306;4.752;2023-02-04T01:58:59;103378.44;;;8.44;nan
23321;BME280;33376;51.306;4.752;2023-02-04T02:01:58;103393.41;;;8.45;nan
23321;BME280;33376;51.306;4.752;2023-02-04T02:04:17;103390.75;;;8.43;nan
23321;BME280;33376;51.306;4.752;2023-02-04T02:06:48;103396.03;;;8.48;nan
23321;BME280;33376;51.306;4.752;2023-02-04T02:09:16;103378.41;;;8.47;nan
23321;BME280;33376;51.306;4.752;2023-02-04T02:11:41;103396.91;;;8.50;nan
23321;BME280;33376;51.306;4.752;2023-02-04T02:14:06;103384.56;;;8.50;nan
23321;BME280;33376;51.306;4.752;2023-02-04T02:16:32;103400.41;;;8.49;nan
23321;BME280;33376;51.306;4.752;2023-02-04T02:18:57;103403.06;;;8.49;nan
23321;BME280;33376;51.306;4.752;2023-02-04T02:21:34;103402.19;;;8.48;nan
23321;BME280;33376;51.306;4.752;2023-02-04T02:24:16;103410.13;;;8.50;nan
23321;BME280;33376;51.306;4.752;2023-02-04T02:26:47;103402.19;;;8.50;nan
23321;BME280;33376;51.306;4.752;2023-02-04T02:29:12;103398.66;;;8.51;nan
23321;BME280;33376;51.306;4.752;2023-02-04T02:31:37;103410.09;;;8.54;nan
23321;BME280;33376;51.306;4.752;2023-02-04T02:34:02;103411.84;;;8.52;nan
23321;BME280;33376;51.306;4.752;2023-02-04T02:36:27;103416.28;;;8.53;nan
23321;BME280;33376;51.306;4.752;2023-02-04T02:38:53;103411.84;;;8.54;nan
23321;BME280;33376;51.306;4.752;2023-02-04T02:41:19;103415.38;;;8.54;nan
23321;BME280;33376;51.306;4.752;2023-02-04T02:43:45;103402.13;;;8.57;nan
23321;BME280;33376;51.306;4.752;2023-02-04T02:46:10;103402.97;;;8.67;nan
23321;BME280;33376;51.306;4.752;2023-02-04T02:48:35;103404.72;;;8.66;nan
23321;BME280;33376;51.306;4.752;2023-02-04T02:51:01;103393.31;;;8.58;nan
23321;BME280;33376;51.306;4.752;2023-02-04T02:53:26;103403.91;;;8.57;nan
23321;BME280;33376;51.306;4.752;2023-02-04T02:55:51;103405.69;;;8.58;nan
23321;BME280;33376;51.306;4.752;2023-02-04T02:58:20;103413.63;;;8.56;nan
23321;BME280;33376;51.306;4.752;2023-02-04T03:00:46;103409.22;;;8.52;nan
23321;BME280;33376;51.306;4.752;2023-02-04T03:03:22;103414.50;;;8.52;nan
23321;BME280;33376;51.306;4.752;2023-02-04T03:05:50;103421.56;;;8.55;nan
23321;BME280;33376;51.306;4.752;2023-02-04T03:08:17;103414.50;;;8.54;nan
23321;BME280;33376;51.306;4.752;2023-02-04T03:10:42;103423.28;;;8.57;nan
23321;BME280;33376;51.306;4.752;2023-02-04T03:13:08;103418.91;;;8.55;nan
23321;BME280;33376;51.306;4.752;2023-02-04T03:15:34;103418.91;;;8.55;nan
23321;BME280;33376;51.306;4.752;2023-02-04T03:18:00;103412.72;;;8.56;nan
23321;BME280;33376;51.306;4.752;2023-02-04T03:20:26;103424.19;;;8.56;nan
23321;BME280;33376;51.306;4.752;2023-02-04T03:22:52;103424.19;;;8.56;nan
23321;BME280;33376;51.306;4.752;2023-02-04T03:25:18;103429.50;;;8.53;nan
23321;BME280;33376;51.306;4.752;2023-02-04T03:27:44;103425.97;;;8.51;nan
23321;BME280;33376;51.306;4.752;2023-02-04T03:30:09;103431.25;;;8.54;nan
23321;BME280;33376;51.306;4.752;2023-02-04T03:32:35;103436.56;;;8.53;nan
23321;BME280;33376;51.306;4.752;2023-02-04T03:35:00;103443.59;;;8.54;nan
23321;BME280;33376;51.306;4.752;2023-02-04T03:37:25;103445.38;;;8.53;nan
23321;BME280;33376;51.306;4.752;2023-02-04T03:39:51;103448.03;;;8.50;nan
23321;BME280;33376;51.306;4.752;2023-02-04T03:42:16;103452.41;;;8.54;nan
23321;BME280;33376;51.306;4.752;2023-02-04T03:44:41;103452.41;;;8.56;nan
23321;BME280;33376;51.306;4.752;2023-02-04T03:47:07;103461.22;;;8.56;nan
23321;BME280;33376;51.306;4.752;2023-02-04T03:49:32;103466.53;;;8.53;nan
23321;BME280;33376;51.306;4.752;2023-02-04T03:51:59;103459.47;;;8.52;nan
23321;BME280;33376;51.306;4.752;2023-02-04T03:54:24;103463.88;;;8.53;nan
23321;BME280;33376;51.306;4.752;2023-02-04T03:56:49;103461.25;;;8.53;nan
23321;BME280;33376;51.306;4.752;2023-02-04T03:59:15;103469.16;;;8.55;nan
23321;BME280;33376;51.306;4.752;2023-02-04T04:01:40;103457.69;;;8.54;nan
23321;BME280;33376;51.306;4.752;2023-02-04T04:04:05;103454.25;;;8.37;nan
23321;BME280;33376;51.306;4.752;2023-02-04T04:06:30;103457.78;;;8.30;nan
23321;BME280;33376;51.306;4.752;2023-02-04T04:08:56;103464.00;;;8.26;nan
23321;BME280;33376;51.306;4.752;2023-02-04T04:11:21;103463.09;;;8.20;nan
23321;BME280;33376;51.306;4.752;2023-02-04T04:13:46;103464.88;;;8.06;nan
23321;BME280;33376;51.306;4.752;2023-02-04T04:16:11;103456.09;;;8.07;nan
23321;BME280;33376;51.306;4.752;2023-02-04T04:18:37;103466.66;;;7.96;nan
23321;BME280;33376;51.306;4.752;2023-02-04T04:21:02;103471.09;;;7.82;nan
23321;BME280;33376;51.306;4.752;2023-02-04T04:23:27;103471.06;;;7.87;nan
23321;BME280;33376;51.306;4.752;2023-02-04T04:25:52;103472.88;;;7.73;nan
23321;BME280;33376;51.306;4.752;2023-02-04T04:28:18;103480.78;;;7.74;nan
23321;BME280;33376;51.306;4.752;2023-02-04T04:30:43;103484.31;;;7.78;nan
23321;BME280;33376;51.306;4.752;2023-02-04T04:33:08;103475.50;;;7.74;nan
23321;BME280;33376;51.306;4.752;2023-02-04T04:35:37;103481.66;;;7.84;nan
23321;BME280;33376;51.306;4.752;2023-02-04T04:38:02;103477.25;;;7.90;nan
23321;BME280;33376;51.306;4.752;2023-02-04T04:40:28;103486.94;;;7.78;nan
23321;BME280;33376;51.306;4.752;2023-02-04T04:42:54;103490.47;;;7.63;nan
23321;BME280;33376;51.306;4.752;2023-02-04T04:45:19;103491.38;;;7.56;nan
23321;BME280;33376;51.306;4.752;2023-02-04T04:47:45;103483.44;;;7.73;nan
23321;BME280;33376;51.306;4.752;2023-02-04T04:50:10;103486.94;;;7.75;nan
23321;BME280;33376;51.306;4.752;2023-02-04T04:52:35;103493.13;;;7.80;nan
23321;BME280;33376;51.306;4.752;2023-02-04T04:55:01;103488.69;;;7.91;nan
23321;BME280;33376;51.306;4.752;2023-02-04T04:57:26;103482.50;;;7.96;nan
23321;BME280;33376;51.306;4.752;2023-02-04T04:59:51;103486.91;;;8.00;nan
23321;BME280;33376;51.306;4.752;2023-02-04T05:02:16;103471.94;;;7.95;nan
23321;BME280;33376;51.306;4.752;2023-02-04T05:04:42;103478.13;;;7.91;nan
23321;BME280;33376;51.306;4.752;2023-02-04T05:07:07;103485.16;;;7.89;nan
23321;BME280;33376;51.306;4.752;2023-02-04T05:09:32;103484.28;;;7.88;nan
23321;BME280;33376;51.306;4.752;2023-02-04T05:11:57;103479.88;;;7.92;nan
23321;BME280;33376;51.306;4.752;2023-02-04T05:14:23;103488.72;;;7.83;nan
23321;BME280;33376;51.306;4.752;2023-02-04T05:16:48;103488.72;;;7.68;nan
23321;BME280;33376;51.306;4.752;2023-02-04T05:19:13;103490.47;;;7.60;nan
23321;BME280;33376;51.306;4.752;2023-02-04T05:21:38;103482.56;;;7.63;nan
23321;BME280;33376;51.306;4.752;2023-02-04T05:24:04;103487.84;;;7.56;nan
23321;BME280;33376;51.306;4.752;2023-02-04T05:26:30;103486.97;;;7.47;nan
23321;BME280;33376;51.306;4.752;2023-02-04T05:28:55;103504.59;;;7.53;nan
23321;BME280;33376;51.306;4.752;2023-02-04T05:31:21;103507.22;;;7.56;nan
23321;BME280;33376;51.306;4.752;2023-02-04T05:33:46;103494.00;;;7.62;nan
23321;BME280;33376;51.306;4.752;2023-02-04T05:36:11;103490.47;;;7.66;nan
23321;BME280;33376;51.306;4.752;2023-02-04T05:38:36;103499.31;;;7.55;nan
23321;BME280;33376;51.306;4.752;2023-02-04T05:41:02;103501.91;;;7.47;nan
23321;BME280;33376;51.306;4.752;2023-02-04T05:43:27;103505.41;;;7.20;nan
23321;BME280;33376;51.306;4.752;2023-02-04T05:45:52;103513.34;;;7.22;nan
23321;BME280;33376;51.306;4.752;2023-02-04T05:48:17;103519.50;;;7.18;nan
23321;BME280;33376;51.306;4.752;2023-02-04T05:50:43;103519.47;;;7.15;nan
23321;BME280;33376;51.306;4.752;2023-02-04T05:53:08;103523.03;;;7.32;nan
23321;BME280;33376;51.306;4.752;2023-02-04T05:55:33;103519.50;;;7.25;nan
23321;BME280;33376;51.306;4.752;2023-02-04T05:57:59;103515.09;;;7.26;nan
23321;BME280;33376;51.306;4.752;2023-02-04T06:00:24;103519.50;;;7.30;nan
23321;BME280;33376;51.306;4.752;2023-02-04T06:02:49;103514.25;;;7.45;nan
23321;BME280;33376;51.306;4.752;2023-02-04T06:05:14;103529.19;;;7.47;nan
23321;BME280;33376;51.306;4.752;2023-02-04T06:07:40;103516.88;;;7.53;nan
23321;BME280;33376;51.306;4.752;2023-02-04T06:10:05;103523.91;;;7.57;nan
23321;BME280;33376;51.306;4.752;2023-02-04T06:12:30;103536.25;;;7.55;nan
23321;BME280;33376;51.306;4.752;2023-02-04T06:14:55;103535.38;;;7.59;nan
23321;BME280;33376;51.306;4.752;2023-02-04T06:17:21;103533.63;;;7.65;nan
23321;BME280;33376;51.306;4.752;2023-02-04T06:19:46;103542.44;;;7.70;nan
23321;BME280;33376;51.306;4.752;2023-02-04T06:22:11;103550.34;;;7.76;nan
23321;BME280;33376;51.306;4.752;2023-02-04T06:24:36;103551.22;;;7.80;nan
23321;BME280;33376;51.306;4.752;2023-02-04T06:27:02;103560.03;;;7.86;nan
23321;BME280;33376;51.306;4.752;2023-02-04T06:29:27;103561.78;;;7.89;nan
23321;BME280;33376;51.306;4.752;2023-02-04T06:31:52;103563.56;;;7.91;nan
23321;BME280;33376;51.306;4.752;2023-02-04T06:34:17;103574.97;;;7.96;nan
23321;BME280;33376;51.306;4.752;2023-02-04T06:36:42;103573.25;;;7.86;nan
23321;BME280;33376;51.306;4.752;2023-02-04T06:39:08;103578.53;;;7.85;nan
23321;BME280;33376;51.306;4.752;2023-02-04T06:41:33;103569.72;;;7.83;nan
23321;BME280;33376;51.306;4.752;2023-02-04T06:43:58;103583.81;;;7.80;nan
23321;BME280;33376;51.306;4.752;2023-02-04T06:46:23;103581.13;;;7.79;nan
23321;BME280;33376;51.306;4.752;2023-02-04T06:48:49;103589.97;;;7.75;nan
23321;BME280;33376;51.306;4.752;2023-02-04T06:51:14;103580.28;;;7.75;nan
23321;BME280;33376;51.306;4.752;2023-02-04T06:53:39;103582.94;;;7.77;nan
23321;BME280;33376;51.306;4.752;2023-02-04T06:56:08;103582.03;;;7.76;nan
23321;BME280;33376;51.306;4.752;2023-02-04T06:58:33;103587.31;;;7.78;nan
23321;BME280;33376;51.306;4.752;2023-02-04T07:00:58;103585.56;;;7.75;nan
23321;BME280;33376;51.306;4.752;2023-02-04T07:03:23;103586.44;;;7.74;nan
23321;BME280;33376;51.306;4.752;2023-02-04T07:05:48;103594.34;;;7.76;nan
23321;BME280;33376;51.306;4.752;2023-02-04T07:08:15;103594.34;;;7.76;nan
23321;BME280;33376;51.306;4.752;2023-02-04T07:10:40;103589.97;;;7.76;nan
23321;BME280;33376;51.306;4.752;2023-02-04T07:13:05;103586.41;;;7.79;nan
23321;BME280;33376;51.306;4.752;2023-02-04T07:15:30;103585.56;;;7.83;nan
23321;BME280;33376;51.306;4.752;2023-02-04T07:17:56;103584.66;;;7.84;nan
23321;BME280;33376;51.306;4.752;2023-02-04T07:20:21;103590.84;;;7.86;nan
23321;BME280;33376;51.306;4.752;2023-02-04T07:22:46;103578.53;;;7.86;nan
23321;BME280;33376;51.306;4.752;2023-02-04T07:25:11;103585.56;;;7.87;nan
23321;BME280;33376;51.306;4.752;2023-02-04T07:27:39;103592.59;;;7.88;nan
23321;BME280;33376;51.306;4.752;2023-02-04T07:30:05;103596.13;;;7.93;nan
23321;BME280;33376;51.306;4.752;2023-02-04T07:32:30;103592.63;;;7.96;nan
23321;BME280;33376;51.306;4.752;2023-02-04T07:34:58;103587.31;;;7.99;nan
23321;BME280;33376;51.306;4.752;2023-02-04T07:37:23;103596.16;;;8.01;nan
23321;BME280;33376;51.306;4.752;2023-02-04T07:39:48;103595.25;;;8.02;nan
23321;BME280;33376;51.306;4.752;2023-02-04T07:42:13;103593.50;;;8.07;nan
23321;BME280;33376;51.306;4.752;2023-02-04T07:44:39;103595.22;;;8.11;nan
23321;BME280;33376;51.306;4.752;2023-02-04T07:47:04;103603.16;;;8.11;nan
23321;BME280;33376;51.306;4.752;2023-02-04T07:49:29;103604.94;;;8.13;nan
23321;BME280;33376;51.306;4.752;2023-02-04T07:51:54;103598.75;;;8.14;nan
23321;BME280;33376;51.306;4.752;2023-02-04T07:54:21;103583.78;;;8.18;nan
23321;BME280;33376;51.306;4.752;2023-02-04T07:56:47;103592.63;;;8.24;nan
23321;BME280;33376;51.306;4.752;2023-02-04T07:59:12;103592.63;;;8.24;nan
23321;BME280;33376;51.306;4.752;2023-02-04T08:01:37;103599.66;;;8.28;nan
23321;BME280;33376;51.306;4.752;2023-02-04T08:04:02;103600.53;;;8.33;nan
23321;BME280;33376;51.306;4.752;2023-02-04T08:06:27;103609.34;;;8.38;nan
23321;BME280;33376;51.306;4.752;2023-02-04T08:08:53;103596.13;;;8.40;nan
23321;BME280;33376;51.306;4.752;2023-02-04T08:11:18;103610.22;;;8.46;nan
23321;BME280;33376;51.306;4.752;2023-02-04T08:13:43;103614.63;;;8.52;nan
23321;BME280;33376;51.306;4.752;2023-02-04T08:16:09;103619.00;;;8.54;nan
23321;BME280;33376;51.306;4.752;2023-02-04T08:18:34;103625.19;;;8.52;nan
23321;BME280;33376;51.306;4.752;2023-02-04T08:20:59;103624.31;;;8.47;nan
23321;BME280;33376;51.306;4.752;2023-02-04T08:23:25;103632.22;;;8.60;nan
23321;BME280;33376;51.306;4.752;2023-02-04T08:25:50;103638.38;;;8.67;nan
23321;BME280;33376;51.306;4.752;2023-02-04T08:28:16;103640.13;;;8.72;nan
23321;BME280;33376;51.306;4.752;2023-02-04T08:30:41;103638.34;;;8.71;nan
23321;BME280;33376;51.306;4.752;2023-02-04T08:33:06;103642.78;;;8.74;nan
23321;BME280;33376;51.306;4.752;2023-02-04T08:35:31;103651.56;;;8.73;nan
23321;BME280;33376;51.306;4.752;2023-02-04T08:37:57;103659.50;;;8.73;nan
23321;BME280;33376;51.306;4.752;2023-02-04T08:40:22;103661.25;;;8.83;nan
23321;BME280;33376;51.306;4.752;2023-02-04T08:42:47;103666.56;;;8.81;nan
23321;BME280;33376;51.306;4.752;2023-02-04T08:45:12;103666.53;;;8.89;nan
23321;BME280;33376;51.306;4.752;2023-02-04T08:47:38;103663.91;;;8.86;nan
23321;BME280;33376;51.306;4.752;2023-02-04T08:50:03;103681.53;;;8.90;nan
23321;BME280;33376;51.306;4.752;2023-02-04T08:52:28;103680.66;;;8.88;nan
23321;BME280;33376;51.306;4.752;2023-02-04T08:54:53;103681.53;;;8.93;nan
23321;BME280;33376;51.306;4.752;2023-02-04T08:57:19;103685.88;;;9.03;nan
23321;BME280;33376;51.306;4.752;2023-02-04T08:59:44;103695.59;;;9.10;nan
23321;BME280;33376;51.306;4.752;2023-02-04T09:02:09;103696.47;;;9.14;nan
23321;BME280;33376;51.306;4.752;2023-02-04T09:04:35;103694.72;;;9.14;nan
23321;BME280;33376;51.306;4.752;2023-02-04T09:07:00;103699.13;;;9.11;nan
23321;BME280;33376;51.306;4.752;2023-02-04T09:09:25;103696.47;;;9.12;nan
23321;BME280;33376;51.306;4.752;2023-02-04T09:11:50;103700.00;;;9.14;nan
23321;BME280;33376;51.306;4.752;2023-02-04T09:14:16;103714.97;;;9.21;nan
23321;BME280;33376;51.306;4.752;2023-02-04T09:16:41;103717.63;;;9.20;nan
23321;BME280;33376;51.306;4.752;2023-02-04T09:19:06;103720.28;;;9.15;nan
23321;BME280;33376;51.306;4.752;2023-02-04T09:21:34;103715.88;;;9.14;nan
23321;BME280;33376;51.306;4.752;2023-02-04T09:24:00;103722.91;;;9.23;nan
23321;BME280;33376;51.306;4.752;2023-02-04T09:26:25;103716.69;;;9.36;nan
23321;BME280;33376;51.306;4.752;2023-02-04T09:28:50;103723.75;;;9.40;nan
23321;BME280;33376;51.306;4.752;2023-02-04T09:31:15;103731.66;;;9.47;nan
23321;BME280;33376;51.306;4.752;2023-02-04T09:33:41;103727.22;;;9.51;nan
23321;BME280;33376;51.306;4.752;2023-02-04T09:36:06;103734.22;;;9.58;nan
23321;BME280;33376;51.306;4.752;2023-02-04T09:38:32;103730.69;;;9.62;nan
23321;BME280;33376;51.306;4.752;2023-02-04T09:41:01;103735.13;;;9.60;nan
23321;BME280;33376;51.306;4.752;2023-02-04T09:43:29;103738.63;;;9.65;nan
23321;BME280;33376;51.306;4.752;2023-02-04T09:45:55;103738.59;;;9.72;nan
23321;BME280;33376;51.306;4.752;2023-02-04T09:48:21;103744.78;;;9.73;nan
23321;BME280;33376;51.306;4.752;2023-02-04T09:50:47;103750.06;;;9.74;nan
23321;BME280;33376;51.306;4.752;2023-02-04T09:53:14;103751.78;;;9.87;nan
23321;BME280;33376;51.306;4.752;2023-02-04T09:55:40;103748.38;;;9.60;nan
23321;BME280;33376;51.306;4.752;2023-02-04T09:58:14;103757.22;;;9.59;nan
23321;BME280;33376;51.306;4.752;2023-02-04T10:00:41;103759.03;;;9.37;nan
23321;BME280;33376;51.306;4.752;2023-02-04T10:03:10;103753.81;;;9.24;nan
23321;BME280;33376;51.306;4.752;2023-02-04T10:05:38;103767.88;;;9.38;nan
23321;BME280;33376;51.306;4.752;2023-02-04T10:08:03;103763.41;;;9.52;nan
23321;BME280;33376;51.306;4.752;2023-02-04T10:10:29;103766.09;;;9.44;nan
23321;BME280;33376;51.306;4.752;2023-02-04T10:12:56;103770.44;;;9.60;nan
23321;BME280;33376;51.306;4.752;2023-02-04T10:15:22;103775.72;;;9.68;nan
23321;BME280;33376;51.306;4.752;2023-02-04T10:17:48;103773.00;;;9.75;nan
23321;BME280;33376;51.306;4.752;2023-02-04T10:20:15;103767.81;;;9.50;nan
23321;BME280;33376;51.306;4.752;2023-02-04T10:22:41;103768.75;;;9.40;nan
23321;BME280;33376;51.306;4.752;2023-02-04T10:25:12;103772.28;;;9.34;nan
23321;BME280;33376;51.306;4.752;2023-02-04T10:27:53;103771.41;;;9.32;nan
23321;BME280;33376;51.306;4.752;2023-02-04T10:30:29;103774.09;;;9.22;nan
23321;BME280;33376;51.306;4.752;2023-02-04T10:32:57;103770.56;;;9.24;nan
23321;BME280;33376;51.306;4.752;2023-02-04T10:35:22;103775.88;;;9.12;nan
23321;BME280;33376;51.306;4.752;2023-02-04T10:38:00;103782.94;;;9.12;nan
23321;BME280;33376;51.306;4.752;2023-02-04T10:42:51;103796.19;;;9.01;nan
23321;BME280;33376;51.306;4.752;2023-02-04T10:45:27;103800.59;;;9.01;nan
23321;BME280;33376;51.306;4.752;2023-02-04T10:47:56;103795.31;;;9.01;nan
23321;BME280;33376;51.306;4.752;2023-02-04T10:50:23;103799.69;;;9.03;nan
23321;BME280;33376;51.306;4.752;2023-02-04T10:52:50;103792.66;;;8.96;nan
23321;BME280;33376;51.306;4.752;2023-02-04T10:55:17;103793.53;;;8.93;nan
23321;BME280;33376;51.306;4.752;2023-02-04T10:57:43;103804.13;;;8.90;nan
23321;BME280;33376;51.306;4.752;2023-02-04T11:03:06;103814.72;;;9.00;nan
23321;BME280;33376;51.306;4.752;2023-02-04T11:05:34;103813.84;;;9.01;nan
23321;BME280;33376;51.306;4.752;2023-02-04T11:08:00;103810.28;;;9.00;nan
23321;BME280;33376;51.306;4.752;2023-02-04T11:10:32;103827.06;;;8.99;nan
23321;BME280;33376;51.306;4.752;2023-02-04T11:13:05;103820.03;;;8.95;nan
23321;BME280;33376;51.306;4.752;2023-02-04T11:15:44;103831.47;;;8.97;nan
23321;BME280;33376;51.306;4.752;2023-02-04T11:20:45;103840.28;;;9.10;nan
23321;BME280;33376;51.306;4.752;2023-02-04T11:25:39;103837.66;;;9.05;nan
23321;BME280;33376;51.306;4.752;2023-02-04T11:31:02;103882.63;;;9.10;nan
23321;BME280;33376;51.306;4.752;2023-02-04T11:33:37;103895.88;;;9.25;nan
23321;BME280;33376;51.306;4.752;2023-02-04T11:36:04;103897.66;;;9.12;nan
23321;BME280;33376;51.306;4.752;2023-02-04T11:38:29;103901.19;;;9.14;nan
23321;BME280;33376;51.306;4.752;2023-02-04T11:40:56;103900.31;;;9.17;nan
23321;BME280;33376;51.306;4.752;2023-02-04T11:43:21;103899.41;;;9.15;nan
23321;BME280;33376;51.306;4.752;2023-02-04T11:45:47;103904.72;;;9.07;nan
23321;BME280;33376;51.306;4.752;2023-02-04T11:48:13;103916.16;;;9.02;nan
23321;BME280;33376;51.306;4.752;2023-02-04T11:50:39;103911.75;;;9.02;nan
23321;BME280;33376;51.306;4.752;2023-02-04T11:53:07;103912.66;;;9.00;nan
23321;BME280;33376;51.306;4.752;2023-02-04T11:55:34;103922.34;;;9.01;nan
23321;BME280;33376;51.306;4.752;2023-02-04T11:58:00;103924.09;;;9.03;nan
23321;BME280;33376;51.306;4.752;2023-02-04T12:00:27;103932.97;;;9.20;nan
23321;BME280;33376;51.306;4.752;2023-02-04T12:05:28;103938.25;;;9.26;nan
23321;BME280;33376;51.306;4.752;2023-02-04T12:08:07;103940.88;;;9.38;nan
23321;BME280;33376;51.306;4.752;2023-02-04T12:10:33;103944.41;;;9.55;nan
23321;BME280;33376;51.306;4.752;2023-02-04T12:12:58;103948.84;;;9.53;nan
23321;BME280;33376;51.306;4.752;2023-02-04T12:15:31;103946.19;;;9.53;nan
23321;BME280;33376;51.306;4.752;2023-02-04T12:20:25;103951.44;;;9.64;nan
23321;BME280;33376;51.306;4.752;2023-02-04T12:22:50;103965.59;;;9.64;nan
23321;BME280;33376;51.306;4.752;2023-02-04T12:25:16;103954.09;;;9.64;nan
23321;BME280;33376;51.306;4.752;2023-02-04T12:27:43;103964.66;;;9.89;nan
23321;BME280;33376;51.306;4.752;2023-02-04T12:30:09;103957.66;;;9.76;nan
23321;BME280;33376;51.306;4.752;2023-02-04T12:32:34;103962.88;;;9.97;nan
23321;BME280;33376;51.306;4.752;2023-02-04T12:35:00;103965.47;;;10.23;nan
23321;BME280;33376;51.306;4.752;2023-02-04T12:37:25;103954.06;;;10.07;nan
23321;BME280;33376;51.306;4.752;2023-02-04T12:39:50;103950.59;;;9.68;nan
23321;BME280;33376;51.306;4.752;2023-02-04T12:42:15;103946.16;;;9.61;nan
23321;BME280;33376;51.306;4.752;2023-02-04T12:44:41;103960.31;;;9.61;nan
23321;BME280;33376;51.306;4.752;2023-02-04T12:47:06;103960.28;;;9.72;nan
23321;BME280;33376;51.306;4.752;2023-02-04T12:49:31;103969.94;;;10.09;nan
23321;BME280;33376;51.306;4.752;2023-02-04T12:51:56;103948.75;;;9.89;nan
23321;BME280;33376;51.306;4.752;2023-02-04T12:54:23;103951.38;;;10.15;nan
23321;BME280;33376;51.306;4.752;2023-02-04T12:56:48;103954.03;;;10.12;nan
23321;BME280;33376;51.306;4.752;2023-02-04T12:59:16;103937.28;;;9.92;nan
23321;BME280;33376;51.306;4.752;2023-02-04T13:01:41;103947.03;;;9.84;nan
23321;BME280;33376;51.306;4.752;2023-02-04T13:04:06;103924.06;;;9.75;nan
23321;BME280;33376;51.306;4.752;2023-02-04T13:06:32;103917.91;;;9.75;nan
23321;BME280;33376;51.306;4.752;2023-02-04T13:08:57;103913.47;;;9.69;nan
23321;BME280;33376;51.306;4.752;2023-02-04T13:11:22;103893.97;;;9.94;nan
23321;BME280;33376;51.306;4.752;2023-02-04T13:13:47;103873.63;;;9.98;nan
23321;BME280;33376;51.306;4.752;2023-02-04T13:16:13;103858.59;;;10.03;nan
23321;BME280;33376;51.306;4.752;2023-02-04T13:18:38;103840.03;;;10.09;nan
23321;BME280;33376;51.306;4.752;2023-02-04T13:21:03;103823.22;;;10.04;nan
23321;BME280;33376;51.306;4.752;2023-02-04T13:23:28;103817.91;;;10.17;nan
23321;BME280;33376;51.306;4.752;2023-02-04T13:25:54;103794.13;;;9.96;nan
23321;BME280;33376;51.306;4.752;2023-02-04T13:28:19;103789.78;;;9.80;nan
23321;BME280;33376;51.306;4.752;2023-02-04T13:30:44;103803.00;;;9.85;nan
23321;BME280;33376;51.306;4.752;2023-02-04T13:33:09;103814.56;;;9.69;nan